Time;durP1;ratioP1;P1;durP2;ratioP2;P2;SDS_P1;SDS_P2;PMS_P1;PMS_P2;Temp;Humidity;BMP_temperature;BMP_pressure;BME280_temperature;BME280_humidity;BME280_pressure;Samples;Min_cycle;Max_cycle;Signal;HPM_P1;HPM_P2
2022/06/01 00:10:06;;;;;;;6.47;2.92;;;;;;;13.28;76.59;101078.69;20929440;28;20045;-69
2022/06/01 00:20:28;;;;;;;5.50;2.75;;;;;;;13.25;76.45;101072.84;20921059;28;20048;-69
2022/06/01 00:30:50;;;;;;;4.15;2.60;;;;;;;13.23;76.38;101062.50;20911589;28;20052;-68
2022/06/01 00:41:11;;;;;;;6.00;2.83;;;;;;;13.22;76.40;101063.44;20916817;28;20045;-68
2022/06/01 00:51:33;;;;;;;4.72;3.15;;;;;;;13.18;76.73;101055.88;20923706;28;20418;-69
2022/06/01 01:01:55;;;;;;;;;;;;;;;13.16;77.31;101053.38;20923748;28;20056;-69
2022/06/01 01:12:18;;;;;;;4.45;2.83;;;;;;;13.21;76.27;101046.03;20928159;28;20398;-67
2022/06/01 01:23:05;;;;;;;3.70;2.95;;;;;;;13.21;77.00;101039.97;20909305;28;20631;-67
2022/06/01 01:33:29;;;;;;;4.15;3.20;;;;;;;13.18;76.21;101046.25;20926112;28;20083;-67
2022/06/01 01:44:04;;;;;;;3.72;2.92;;;;;;;13.17;76.01;101028.88;20925374;28;20128;-70
2022/06/01 01:54:50;;;;;;;3.95;3.00;;;;;;;13.14;76.00;101038.75;20910545;28;20406;-67
2022/06/01 02:16:02;;;;;;;5.72;3.72;;;;;;;12.93;79.53;101025.41;20907209;28;20053;-68
2022/06/01 02:26:24;;;;;;;5.88;3.60;;;;;;;12.85;78.88;101037.31;20901234;28;20036;-68
2022/06/01 02:36:47;;;;;;;7.35;4.68;;;;;;;12.63;79.98;101031.91;20913991;28;20049;-68
2022/06/01 02:47:08;;;;;;;7.55;4.30;;;;;;;12.64;79.79;101023.97;20920137;28;20056;-68
2022/06/01 02:57:30;;;;;;;5.57;4.77;;;;;;;12.69;79.95;101023.66;20916247;28;20047;-68
2022/06/01 03:07:52;;;;;;;5.13;4.63;;;;;;;12.63;81.48;101024.06;20924281;28;20053;-69
2022/06/01 03:18:13;;;;;;;7.50;4.57;;;;;;;12.54;81.78;101017.69;20923657;28;20044;-67
2022/06/01 03:28:35;;;;;;;8.63;4.97;;;;;;;12.55;81.68;101014.13;20934597;28;20534;-66
2022/06/01 03:38:57;;;;;;;6.47;5.10;;;;;;;12.48;82.55;101029.53;20916833;28;20287;-67
2022/06/01 03:49:19;;;;;;;6.97;4.85;;;;;;;12.34;82.15;101034.88;20916282;28;20608;-66
2022/06/01 03:59:41;;;;;;;7.43;5.65;;;;;;;12.40;84.12;101031.81;20924093;28;20523;-66
2022/06/01 04:10:03;;;;;;;6.40;5.50;;;;;;;12.47;83.34;101051.38;20916344;28;20049;-66
2022/06/01 04:20:24;;;;;;;8.63;6.10;;;;;;;12.48;81.97;101053.88;20962572;28;20080;-67
2022/06/01 04:30:46;;;;;;;7.90;5.87;;;;;;;12.48;81.90;101058.28;20921507;28;20041;-66
2022/06/01 04:41:08;;;;;;;;;;;;;;;12.47;86.81;101056.63;20921927;28;20294;-66
2022/06/01 04:51:29;;;;;;;9.40;6.00;;;;;;;12.46;82.81;101054.94;20918591;28;19924;-67
2022/06/01 05:01:51;;;;;;;7.75;6.38;;;;;;;12.48;83.36;101059.97;20911234;28;20052;-66
2022/06/01 05:12:12;;;;;;;;;;;;;;;12.47;87.25;101067.91;20926529;28;20607;-66
2022/06/01 05:22:34;;;;;;;9.60;7.77;;;;;;;12.33;84.27;101046.28;20953305;28;20018;-67
2022/06/01 05:32:55;;;;;;;12.43;8.73;;;;;;;12.48;84.91;101044.28;20899093;28;20046;-67
2022/06/01 05:43:18;;;;;;;14.27;10.50;;;;;;;12.49;84.26;101048.56;20904561;28;20291;-66
2022/06/01 05:53:40;;;;;;;14.25;10.18;;;;;;;12.57;83.38;101054.09;20914596;28;20032;-66
2022/06/01 06:04:02;;;;;;;17.33;11.55;;;;;;;12.62;82.59;101052.00;20920998;28;20045;-67
2022/06/01 06:14:23;;;;;;;14.27;11.48;;;;;;;12.71;83.11;101066.22;20904248;28;20432;-66
2022/06/01 06:24:45;;;;;;;14.23;12.55;;;;;;;12.69;84.64;101074.16;20904396;28;20055;-66
2022/06/01 06:35:07;;;;;;;14.40;12.83;;;;;;;12.69;84.17;101089.03;20898217;28;20528;-66
2022/06/01 06:45:28;;;;;;;17.50;12.80;;;;;;;12.79;83.71;101090.91;20906623;28;20402;-66
2022/06/01 06:55:51;;;;;;;15.27;12.75;;;;;;;12.99;83.03;101093.00;20919935;28;20052;-66
2022/06/01 07:06:12;;;;;;;21.42;13.90;;;;;;;13.18;82.31;101093.38;20923735;28;20040;-66
2022/06/01 07:16:35;;;;;;;18.48;14.63;;;;;;;13.26;82.39;101100.69;20896737;28;20618;-66
2022/06/01 07:26:57;;;;;;;21.38;14.73;;;;;;;13.39;81.50;101102.31;20906406;28;20649;-66
2022/06/01 07:47:58;;;;;;;20.10;15.55;;;;;;;13.71;81.17;101113.91;20924277;28;20815;-66
2022/06/01 07:58:40;;;;;;;19.83;15.90;;;;;;;13.76;80.97;101122.28;20924679;28;20448;-67
2022/06/01 08:09:02;;;;;;;19.92;14.68;;;;;;;13.76;82.17;101132.78;20910489;28;20051;-66
2022/06/01 08:19:24;;;;;;;27.80;16.05;;;;;;;13.76;81.95;101132.78;20910849;28;20053;-66
2022/06/01 08:29:48;;;;;;;21.02;16.77;;;;;;;13.70;82.43;101135.81;20906964;28;20440;-66
2022/06/01 08:40:09;;;;;;;22.77;16.65;;;;;;;13.71;82.45;101150.59;20907240;28;20044;-66
2022/06/01 08:50:34;;;;;;;22.00;17.58;;;;;;;13.72;84.06;101147.03;20913319;28;20052;-66
2022/06/01 09:01:10;;;;;;;24.45;19.08;;;;;;;13.71;84.00;101145.38;20916792;28;20056;-66
2022/06/01 09:11:36;;;;;;;26.55;18.60;;;;;;;13.60;87.58;101148.78;20902315;28;20497;-67
2022/06/01 09:33:16;;;;;;;25.73;20.02;;;;;;;14.02;85.39;101156.16;20923439;28;20064;-66
2022/06/01 09:43:40;;;;;;;23.42;19.70;;;;;;;14.14;83.29;101159.66;20918115;28;20049;-67
2022/06/01 09:54:24;;;;;;;28.85;21.60;;;;;;;14.63;84.41;101154.09;20908239;28;20057;-66
2022/06/01 10:15:47;;;;;;;21.63;17.37;;;;;;;15.44;78.46;101147.69;20892405;28;20144;-65
2022/06/01 10:26:23;;;;;;;15.07;13.48;;;;;;;15.56;78.22;101144.09;20908994;28;20041;-67
2022/06/01 10:36:55;;;;;;;13.27;11.48;;;;;;;16.03;73.27;101156.84;20918220;28;20528;-64
2022/06/01 10:47:36;;;;;;;12.63;9.15;;;;;;;16.36;70.66;101164.66;20897277;28;20573;-65
2022/06/01 10:58:00;;;;;;;8.40;7.50;;;;;;;16.79;70.72;101153.84;20911939;28;20411;-66
2022/06/01 11:09:01;;;;;;;6.63;4.78;;;;;;;17.41;64.20;101152.75;20908283;28;20056;-66
2022/06/01 11:19:58;;;;;;;6.40;5.65;;;;;;;17.19;68.94;101162.63;20927097;28;20440;-66
2022/06/01 11:30:23;;;;;;;5.85;4.85;;;;;;;16.85;67.97;101158.59;20871538;28;20045;-66
2022/06/01 11:40:55;;;;;;;6.75;4.70;;;;;;;16.60;67.27;101164.25;20925176;28;20532;-66
2022/06/01 11:51:19;;;;;;;6.45;5.20;;;;;;;16.29;72.17;101164.28;20930818;28;20048;-66
2022/06/01 12:01:41;;;;;;;4.70;3.30;;;;;;;16.09;74.15;101172.16;20932308;28;20040;-66
2022/06/01 12:12:03;;;;;;;7.18;5.45;;;;;;;16.00;74.12;101199.22;20927522;28;20055;-65
2022/06/01 12:33:10;;;;;;;3.60;2.38;;;;;;;16.57;71.88;101206.66;20931800;28;20056;-66
2022/06/01 12:43:31;;;;;;;2.70;2.50;;;;;;;16.35;73.39;101200.66;20911594;28;20041;-66
2022/06/01 12:53:53;;;;;;;2.60;2.30;;;;;;;16.33;74.66;101191.19;20930841;28;20053;-66
2022/06/01 13:04:22;;;;;;;6.85;4.05;;;;;;;16.34;72.21;101195.50;20938266;28;20626;-66
2022/06/01 13:14:46;;;;;;;3.80;3.40;;;;;;;16.83;71.37;101186.88;20925125;28;20044;-65
2022/06/01 13:25:15;;;;;;;2.72;2.35;;;;;;;16.86;70.07;101193.66;20905125;28;20041;-67
2022/06/01 13:35:43;;;;;;;1.63;1.52;;;;;;;16.64;71.07;101213.06;20899176;28;20045;-66
2022/06/01 13:46:07;;;;;;;3.15;2.85;;;;;;;16.52;69.50;101214.09;20930241;28;20672;-66
2022/06/01 13:56:41;;;;;;;4.32;2.15;;;;;;;16.42;67.56;101222.88;20931070;28;20456;-66
2022/06/01 14:07:12;;;;;;;1.05;0.70;;;;;;;15.77;68.87;101256.25;20906772;28;20052;-66
2022/06/01 14:17:43;;;;;;;0.30;0.30;;;;;;;14.85;73.07;101248.63;20921630;28;20132;-66
2022/06/01 14:38:45;;;;;;;3.33;2.60;;;;;;;14.24;78.76;101257.69;20920692;28;19931;-67
2022/06/01 14:49:07;;;;;;;3.53;1.40;;;;;;;14.43;77.31;101267.56;20901125;28;20072;-67
2022/06/01 14:59:29;;;;;;;1.05;0.95;;;;;;;15.04;73.22;101259.41;20920499;28;20048;-66
2022/06/01 15:09:50;;;;;;;1.23;0.82;;;;;;;15.29;72.03;101272.38;20922049;28;20041;-66
2022/06/01 15:20:12;;;;;;;0.73;0.68;;;;;;;15.78;70.78;101272.84;20921086;28;20769;-68
2022/06/01 15:41:15;;;;;;;1.10;0.85;;;;;;;16.27;69.63;101302.19;20914160;28;19924;-66
2022/06/01 15:51:38;;;;;;;;;;;;;;;16.11;66.22;101299.94;20937495;28;20047;-65
2022/06/01 16:02:00;;;;;;;1.05;0.95;;;;;;;16.17;69.49;101295.97;20932098;28;19921;-67
2022/06/01 16:12:22;;;;;;;3.15;1.00;;;;;;;15.93;71.02;101298.78;20912854;28;20044;-66
2022/06/01 16:22:43;;;;;;;;;;;;;;;15.98;67.38;101309.78;20913073;28;20037;-67
2022/06/01 16:33:05;;;;;;;1.70;1.40;;;;;;;15.94;71.04;101310.97;20920828;28;19943;-68
2022/06/01 16:43:28;;;;;;;2.13;1.80;;;;;;;15.80;71.83;101307.75;20941017;28;20291;-67
2022/06/01 16:53:50;;;;;;;2.70;2.10;;;;;;;15.73;72.07;101296.88;20910771;28;20045;-67
2022/06/01 17:04:12;;;;;;;2.92;2.70;;;;;;;15.62;72.54;101293.41;20916763;28;20049;-66
2022/06/01 17:14:33;;;;;;;3.05;2.75;;;;;;;15.81;72.88;101309.44;20899178;28;20064;-66
2022/06/01 17:24:55;;;;;;;3.03;2.70;;;;;;;16.15;73.14;101321.59;20927138;28;20044;-68
2022/06/01 17:35:28;;;;;;;1.92;1.77;;;;;;;15.93;71.96;101329.50;20917187;28;20045;-66
2022/06/01 17:45:50;;;;;;;2.38;1.77;;;;;;;15.53;73.22;101341.44;20921637;28;20076;-67
2022/06/01 17:56:14;;;;;;;1.40;1.30;;;;;;;15.52;72.88;101339.78;20908547;28;20045;-68
2022/06/01 18:06:36;;;;;;;1.98;1.45;;;;;;;15.34;72.82;101329.84;20921636;28;20520;-67
2022/06/01 18:16:58;;;;;;;1.23;1.20;;;;;;;15.33;73.48;101349.19;20896848;28;20071;-68
2022/06/01 18:27:24;;;;;;;2.40;1.80;;;;;;;15.22;73.79;101355.19;20904911;28;20512;-67
2022/06/01 18:37:46;;;;;;;2.97;1.90;;;;;;;15.17;74.26;101359.13;20919733;28;20041;-67
2022/06/01 18:48:07;;;;;;;;;;;;;;;15.09;74.88;101372.84;20916094;28;20044;-67
2022/06/01 18:58:29;;;;;;;4.43;2.60;;;;;;;15.15;75.04;101390.75;20906448;28;19925;-69
2022/06/01 19:08:50;;;;;;;;;;;;;;;15.07;75.24;101395.75;20941712;28;20528;-67
2022/06/01 19:19:32;;;;;;;5.80;3.10;;;;;;;15.08;75.39;101414.94;20911551;28;19921;-67
2022/06/01 19:29:55;;;;;;;3.70;3.40;;;;;;;15.01;75.51;101430.31;20897116;28;20045;-67
2022/06/01 19:50:56;;;;;;;4.53;3.30;;;;;;;14.94;75.60;101447.47;20928839;28;20052;-66
2022/06/01 20:01:18;;;;;;;5.22;3.10;;;;;;;14.77;75.90;101460.97;20943343;28;20036;-67
2022/06/01 20:22:23;;;;;;;4.78;3.40;;;;;;;14.56;76.97;101478.25;20930233;28;20067;-67
2022/06/01 20:32:45;;;;;;;4.05;3.42;;;;;;;14.46;77.60;101503.44;20914397;28;20457;-67
2022/06/01 20:43:07;;;;;;;4.57;4.05;;;;;;;14.32;77.60;101501.91;20926080;28;20051;-67
2022/06/01 20:53:29;;;;;;;6.78;4.43;;;;;;;14.09;78.26;101503.44;20917132;28;20139;-67
2022/06/01 21:03:51;;;;;;;5.72;4.10;;;;;;;13.88;78.96;101515.41;20901954;28;20481;-67
2022/06/01 21:14:13;;;;;;;5.75;4.40;;;;;;;13.77;78.80;101519.66;20930306;28;20048;-67
2022/06/01 21:24:38;;;;;;;4.53;4.13;;;;;;;13.61;78.82;101532.09;20912510;28;20041;-67
2022/06/01 21:35:01;;;;;;;5.90;4.75;;;;;;;13.41;79.55;101545.66;20925041;28;20060;-67
2022/06/01 21:45:22;;;;;;;5.28;4.75;;;;;;;13.38;79.94;101548.47;20914188;28;20799;-67
2022/06/01 21:55:46;;;;;;;;;;;;;;;13.28;83.77;101554.41;20931307;28;20044;-67
2022/06/01 22:06:08;;;;;;;8.07;5.63;;;;;;;13.15;80.98;101556.94;20898014;28;19921;-67
2022/06/01 22:16:29;;;;;;;7.55;5.30;;;;;;;12.99;80.90;101564.09;20916074;28;20048;-67
2022/06/01 22:26:57;;;;;;;7.65;5.43;;;;;;;12.87;82.30;101570.06;20911493;28;20051;-67
2022/06/01 22:37:19;;;;;;;8.15;6.50;;;;;;;12.76;82.63;101572.50;20926011;28;20437;-66
2022/06/01 22:47:46;;;;;;;8.48;6.25;;;;;;;12.71;82.14;101578.97;20909080;28;20049;-66
2022/06/01 22:58:08;;;;;;;7.40;6.60;;;;;;;12.48;82.87;101590.81;20920310;28;20045;-66
2022/06/01 23:08:29;;;;;;;9.65;6.40;;;;;;;12.40;83.67;101584.38;20904322;28;20048;-66
2022/06/01 23:18:51;;;;;;;8.10;6.53;;;;;;;12.32;82.82;101598.81;20921158;28;20041;-66
2022/06/01 23:29:28;;;;;;;10.50;6.53;;;;;;;12.10;82.98;101606.22;20935644;28;20131;-67
2022/06/01 23:40:21;;;;;;;10.10;7.05;;;;;;;12.02;84.19;101618.91;20925415;28;20951;-67
2022/06/01 23:50:51;;;;;;;10.45;7.32;;;;;;;11.86;82.54;101612.88;20919938;28;20045;-67
